createdAt,value
2022-08-17T00:00:34.451Z,73.69
2022-08-17T00:03:09.991Z,75.26
2022-08-17T00:05:41.978Z,73.62
2022-08-17T00:08:10.133Z,74.39
2022-08-17T00:10:38.314Z,73.03
2022-08-17T00:13:10.263Z,71.08
2022-08-17T00:15:38.618Z,73.23
2022-08-17T00:19:06.324Z,71.85
2022-08-17T00:20:56.067Z,71.41
2022-08-17T00:23:24.956Z,69.93
2022-08-17T00:25:53.707Z,69.68
2022-08-17T00:28:23.356Z,70.67
2022-08-17T00:30:53.702Z,70.28
2022-08-17T00:33:26.400Z,70.85
2022-08-17T00:35:55.624Z,70.22
2022-08-17T00:38:24.173Z,70.50
2022-08-17T00:40:55.883Z,71.02
2022-08-17T00:43:32.954Z,69.67
2022-08-17T00:46:03.399Z,70.23
2022-08-17T00:48:32.415Z,70.72
2022-08-17T00:51:05.077Z,69.69
2022-08-17T00:53:38.439Z,69.58
2022-08-17T00:56:09.240Z,67.98
2022-08-17T00:58:39.737Z,68.23
2022-08-17T01:01:11.786Z,68.72
2022-08-17T01:03:41.711Z,69.25
2022-08-17T01:06:10.283Z,68.60
2022-08-17T01:08:40.603Z,68.95
2022-08-17T01:11:09.530Z,69.51
2022-08-17T01:13:43.504Z,69.01
2022-08-17T01:16:17.151Z,69.82
2022-08-17T01:18:46.934Z,70.42
2022-08-17T01:21:22.336Z,70.68
2022-08-17T01:23:51.811Z,70.93
2022-08-17T01:26:20.541Z,72.63
2022-08-17T01:28:54.309Z,74.51
2022-08-17T01:31:26.554Z,75.16
2022-08-17T01:33:54.582Z,74.52
2022-08-17T01:36:22.872Z,76.23
2022-08-17T01:38:52.489Z,75.98
2022-08-17T01:41:23.211Z,76.33
2022-08-17T01:43:55.941Z,76.56
2022-08-17T01:46:27.148Z,75.72
2022-08-17T01:48:56.568Z,75.53
2022-08-17T01:51:25.971Z,75.44
2022-08-17T01:53:59.347Z,76.21
2022-08-17T01:56:29.757Z,75.61
2022-08-17T01:58:58.249Z,75.82
2022-08-17T02:01:28.588Z,76.34
2022-08-17T02:04:00.911Z,75.84
2022-08-17T02:06:31.438Z,75.66
2022-08-17T02:09:16.806Z,75.05
2022-08-17T02:11:46.384Z,74.48
2022-08-17T02:14:14.808Z,73.40
2022-08-17T02:16:43.529Z,73.92
2022-08-17T02:19:13.683Z,74.56
2022-08-17T02:21:43.210Z,74.58
2022-08-17T02:24:16.617Z,74.78
2022-08-17T02:26:46.293Z,74.20
2022-08-17T02:29:15.814Z,73.94
2022-08-17T02:31:44.726Z,73.21
2022-08-17T02:34:13.278Z,73.27
2022-08-17T02:36:41.550Z,73.33
2022-08-17T02:39:11.618Z,73.58
2022-08-17T02:41:41.583Z,73.53
2022-08-17T02:44:09.559Z,73.13
2022-08-17T02:46:37.970Z,72.44
2022-08-17T02:49:06.498Z,71.67
2022-08-17T02:51:35.366Z,71.41
2022-08-17T02:54:39.291Z,70.99
2022-08-17T02:56:52.843Z,71.51
2022-08-17T02:59:20.899Z,71.80
2022-08-17T03:01:49.112Z,72.38
2022-08-17T03:04:17.895Z,73.04
2022-08-17T03:06:45.871Z,73.22
2022-08-17T03:09:14.039Z,73.49
2022-08-17T03:11:41.980Z,72.75
2022-08-17T03:14:11.369Z,72.61
2022-08-17T03:16:39.393Z,72.52
2022-08-17T03:19:07.365Z,72.98
2022-08-17T03:21:35.454Z,73.09
2022-08-17T03:24:08.772Z,73.67
2022-08-17T03:26:37.221Z,73.28
2022-08-17T03:29:05.179Z,73.20
2022-08-17T03:31:34.505Z,73.39
2022-08-17T03:34:05.274Z,73.10
2022-08-17T03:36:36.048Z,72.70
2022-08-17T03:39:04.577Z,72.43
2022-08-17T03:41:32.621Z,72.20
2022-08-17T03:44:00.761Z,72.02
2022-08-17T03:46:46.498Z,71.52
2022-08-17T03:49:33.373Z,70.46
2022-08-17T03:52:18.750Z,70.33
2022-08-17T03:57:36.961Z,69.96
2022-08-17T04:00:06.104Z,70.45
2022-08-17T04:02:40.483Z,70.51
2022-08-17T04:05:09.547Z,70.88
2022-08-17T04:07:37.499Z,70.97
2022-08-17T04:10:06.023Z,71.83
2022-08-17T04:12:45.923Z,72.35
2022-08-17T04:15:14.456Z,71.83
2022-08-17T04:17:44.304Z,72.17
2022-08-17T04:20:13.328Z,72.06
2022-08-17T04:22:41.593Z,72.53
2022-08-17T04:25:15.077Z,72.14
2022-08-17T04:27:44.561Z,75.13
2022-08-17T04:30:14.025Z,76.77
2022-08-17T04:33:02.273Z,77.75
2022-08-17T04:35:38.116Z,77.21
2022-08-17T04:38:06.560Z,76.58
2022-08-17T04:40:52.268Z,77.47
2022-08-17T04:43:24.479Z,77.76
2022-08-17T04:45:56.911Z,78.21
2022-08-17T04:48:29.980Z,78.63
2022-08-17T04:51:07.182Z,77.16
2022-08-17T04:53:35.189Z,75.76
2022-08-17T04:56:03.183Z,75.57
2022-08-17T04:58:33.196Z,76.04
2022-08-17T05:01:01.553Z,77.57
2022-08-17T05:03:30.323Z,77.58
2022-08-17T05:05:58.264Z,77.55
2022-08-17T05:08:26.388Z,77.33
2022-08-17T05:10:54.352Z,77.39
2022-08-17T05:13:25.440Z,77.21
2022-08-17T05:15:57.922Z,77.00
2022-08-17T05:18:26.592Z,76.19
2022-08-17T05:20:54.834Z,76.21
2022-08-17T05:23:25.764Z,76.70
2022-08-17T05:25:56.426Z,76.23
2022-08-17T05:28:27.553Z,76.51
2022-08-17T05:31:00.134Z,77.23
2022-08-17T05:33:31.874Z,77.78
2022-08-17T05:36:00.840Z,77.83
2022-08-17T05:38:30.114Z,77.79
2022-08-17T05:40:58.772Z,77.95
2022-08-17T05:43:28.955Z,78.14
2022-08-17T05:46:04.451Z,78.65
2022-08-17T05:48:40.514Z,78.04
2022-08-17T05:51:38.098Z,79.15
2022-08-17T05:54:25.245Z,78.72
2022-08-17T05:57:03.598Z,79.29
2022-08-17T05:59:43.331Z,79.27
2022-08-17T06:02:22.498Z,78.82
2022-08-17T06:05:06.639Z,78.30
2022-08-17T06:07:41.721Z,77.95
2022-08-17T06:10:18.618Z,77.63
2022-08-17T06:13:00.805Z,77.09
2022-08-17T06:15:34.094Z,76.41
2022-08-17T06:18:06.725Z,76.51
2022-08-17T06:20:44.933Z,76.28
2022-08-17T06:23:18.298Z,76.31
2022-08-17T06:25:50.829Z,76.29
2022-08-17T06:28:27.359Z,76.60
2022-08-17T06:31:03.263Z,76.57
2022-08-17T06:33:37.092Z,76.68
2022-08-17T06:36:24.709Z,77.11
2022-08-17T06:39:04.350Z,76.04
2022-08-17T06:41:42.989Z,75.89
2022-08-17T06:44:49.965Z,76.05
2022-08-17T06:47:09.131Z,75.62
2022-08-17T06:49:55.218Z,75.27
2022-08-17T06:52:46.107Z,74.29
2022-08-17T06:55:20.254Z,74.12
2022-08-17T06:57:52.414Z,74.26
2022-08-17T07:00:23.970Z,73.62
2022-08-17T07:02:56.602Z,73.73
2022-08-17T07:05:31.663Z,73.35
2022-08-17T07:08:06.528Z,73.34
2022-08-17T07:10:42.734Z,72.32
2022-08-17T07:13:32.272Z,72.49
2022-08-17T07:16:08.871Z,71.72
2022-08-17T07:18:37.441Z,71.54
2022-08-17T07:21:17.968Z,70.77
2022-08-17T07:24:01.035Z,71.48
2022-08-17T07:26:29.625Z,70.63
2022-08-17T07:28:58.032Z,70.46
2022-08-17T07:31:27.666Z,70.51
2022-08-17T07:34:07.075Z,70.09
2022-08-17T07:36:36.528Z,70.78
2022-08-17T07:39:06.135Z,70.65
2022-08-17T07:41:57.504Z,70.41
2022-08-17T07:44:27.787Z,69.84
2022-08-17T07:47:13.671Z,69.48
2022-08-17T07:49:44.677Z,68.98
2022-08-17T07:52:50.327Z,67.10
2022-08-17T07:55:27.874Z,66.17
2022-08-17T07:57:58.278Z,66.51
2022-08-17T08:00:32.160Z,66.29
2022-08-17T08:03:16.777Z,64.94
2022-08-17T08:05:57.648Z,64.59
2022-08-17T08:08:35.279Z,65.37
2022-08-17T08:11:08.382Z,65.03
2022-08-17T08:13:42.653Z,65.13
2022-08-17T08:16:21.496Z,65.04
2022-08-17T08:18:55.755Z,65.07
2022-08-17T08:21:36.100Z,64.67
2022-08-17T08:24:31.063Z,63.37
2022-08-17T08:27:09.265Z,63.13
2022-08-17T08:29:46.496Z,62.77
2022-08-17T08:32:21.042Z,63.18
2022-08-17T08:35:02.546Z,64.15
2022-08-17T08:37:43.477Z,64.24
2022-08-17T08:40:29.874Z,63.46
2022-08-17T08:43:07.075Z,62.87
2022-08-17T08:45:43.944Z,62.48
2022-08-17T08:48:53.026Z,62.94
2022-08-17T08:51:17.975Z,63.31
2022-08-17T08:53:55.603Z,63.27
2022-08-17T08:56:32.556Z,62.73
2022-08-17T08:59:08.880Z,62.31
2022-08-17T09:01:44.808Z,62.27
2022-08-17T09:05:02.830Z,60.95
2022-08-17T09:07:34.786Z,61.52
2022-08-17T09:10:09.579Z,62.20
2022-08-17T09:12:47.631Z,61.74
2022-08-17T09:15:19.449Z,61.77
2022-08-17T09:18:14.593Z,61.14
2022-08-17T09:20:50.371Z,60.87
2022-08-17T09:23:30.364Z,61.13
2022-08-17T09:26:04.121Z,60.97
2022-08-17T09:28:37.932Z,61.04
2022-08-17T09:31:10.530Z,61.06
2022-08-17T09:33:43.971Z,61.42
2022-08-17T09:36:17.381Z,60.88
2022-08-17T09:38:55.088Z,62.29
2022-08-17T09:41:29.281Z,61.20
2022-08-17T09:44:10.739Z,60.63
2022-08-17T09:46:57.678Z,59.83
2022-08-17T09:49:31.921Z,59.85
2022-08-17T09:52:04.460Z,59.33
2022-08-17T09:54:40.289Z,58.71
2022-08-17T09:57:31.599Z,57.97
2022-08-17T10:00:23.839Z,58.03
2022-08-17T10:03:28.319Z,56.73
2022-08-17T10:06:06.381Z,58.41
2022-08-17T10:08:40.957Z,58.49
2022-08-17T10:11:33.474Z,57.48
2022-08-17T10:14:37.015Z,58.21
2022-08-17T10:17:08.882Z,57.55
2022-08-17T10:19:44.181Z,57.47
2022-08-17T10:22:38.829Z,57.24
2022-08-17T10:25:48.687Z,56.25
2022-08-17T10:28:25.845Z,55.39
2022-08-17T10:31:23.260Z,52.70
2022-08-17T10:34:01.817Z,49.90
2022-08-17T10:36:46.237Z,49.74
2022-08-17T10:39:23.921Z,50.14
2022-08-17T10:41:57.379Z,51.05
2022-08-17T10:44:39.907Z,49.68
2022-08-17T10:47:12.842Z,50.15
2022-08-17T10:49:47.790Z,50.22
2022-08-17T10:52:52.602Z,49.13
2022-08-17T10:55:21.390Z,49.73
2022-08-17T10:57:51.308Z,49.36
2022-08-17T11:01:08.231Z,48.39
2022-08-17T11:03:36.335Z,49.00
2022-08-17T11:06:16.913Z,49.56
2022-08-17T11:09:11.910Z,48.00
2022-08-17T11:11:51.646Z,49.24
2022-08-17T11:14:34.109Z,48.47
2022-08-17T11:17:15.452Z,48.20
2022-08-17T11:20:13.164Z,47.95
2022-08-17T11:23:23.878Z,48.86
2022-08-17T11:25:54.840Z,49.26
2022-08-17T11:28:26.783Z,48.28
2022-08-17T11:30:57.489Z,47.49
2022-08-17T11:33:59.328Z,46.86
2022-08-17T11:36:56.060Z,47.92
2022-08-17T11:39:37.743Z,47.37
2022-08-17T11:42:11.886Z,47.51
2022-08-17T11:44:51.484Z,46.73
2022-08-17T11:47:49.512Z,46.91
2022-08-17T11:51:01.456Z,45.74
2022-08-17T11:54:31.701Z,46.84
2022-08-17T11:57:00.809Z,46.89
2022-08-17T11:59:58.966Z,45.08
2022-08-17T12:02:48.911Z,45.12
2022-08-17T12:05:34.178Z,43.86
2022-08-17T12:08:20.175Z,45.27
2022-08-17T12:11:11.763Z,45.46
2022-08-17T12:13:56.884Z,44.51
2022-08-17T12:16:25.477Z,44.22
2022-08-17T12:18:58.031Z,43.84
2022-08-17T12:21:40.333Z,44.55
2022-08-17T12:24:19.916Z,44.70
2022-08-17T12:26:53.599Z,44.80
2022-08-17T12:29:38.418Z,44.05
2022-08-17T12:32:08.469Z,44.07
2022-08-17T12:34:40.739Z,44.59
2022-08-17T12:37:16.342Z,44.70
2022-08-17T12:39:52.362Z,44.33
2022-08-17T12:42:29.353Z,44.23
2022-08-17T12:44:59.076Z,44.33
2022-08-17T12:47:30.023Z,44.63
2022-08-17T12:50:08.418Z,44.05
2022-08-17T12:53:01.638Z,44.39
2022-08-17T12:55:35.866Z,44.20
2022-08-17T12:58:04.455Z,43.97
2022-08-17T13:00:38.043Z,44.67
2022-08-17T13:03:09.711Z,44.14
2022-08-17T13:05:43.668Z,45.03
2022-08-17T13:08:16.683Z,45.04
2022-08-17T13:10:54.434Z,44.90
2022-08-17T13:13:24.445Z,44.97
2022-08-17T13:15:57.070Z,44.60
2022-08-17T13:18:47.249Z,43.81
2022-08-17T13:21:27.252Z,44.45
2022-08-17T13:23:57.962Z,45.03
2022-08-17T13:26:30.319Z,45.20
2022-08-17T13:28:59.143Z,45.27
2022-08-17T13:31:52.089Z,46.03
2022-08-17T13:34:38.711Z,46.90
2022-08-17T13:37:29.974Z,48.27
2022-08-17T13:40:00.703Z,48.47
2022-08-17T13:42:34.769Z,49.07
2022-08-17T13:45:41.255Z,49.13
2022-08-17T13:48:17.786Z,49.12
2022-08-17T13:50:49.236Z,48.91
2022-08-17T13:53:19.764Z,49.50
2022-08-17T13:55:49.889Z,48.68
2022-08-17T13:58:23.360Z,48.54
2022-08-17T14:00:51.785Z,47.60
2022-08-17T14:03:21.889Z,48.29
2022-08-17T14:05:51.056Z,47.31
2022-08-17T14:08:20.955Z,47.52
2022-08-17T14:10:57.868Z,47.26
2022-08-17T14:13:25.846Z,47.80
2022-08-17T14:15:55.636Z,47.22
2022-08-17T14:18:35.657Z,46.58
2022-08-17T14:21:14.495Z,46.68
2022-08-17T14:23:54.307Z,47.09
2022-08-17T14:26:23.197Z,46.55
2022-08-17T14:28:56.690Z,46.48
2022-08-17T14:31:26.703Z,46.35
2022-08-17T14:33:56.176Z,47.09
2022-08-17T14:36:24.141Z,46.83
2022-08-17T14:38:52.135Z,46.79
2022-08-17T14:41:22.283Z,47.04
2022-08-17T14:43:51.408Z,46.67
2022-08-17T14:46:19.561Z,46.97
2022-08-17T14:48:47.531Z,47.40
2022-08-17T14:51:17.116Z,47.60
2022-08-17T14:53:45.862Z,48.55
2022-08-17T14:56:14.411Z,49.29
2022-08-17T14:58:42.973Z,50.11
2022-08-17T15:01:12.093Z,51.83
2022-08-17T15:03:41.111Z,52.34
2022-08-17T15:06:11.247Z,53.31
2022-08-17T15:08:42.006Z,55.11
2022-08-17T15:11:14.705Z,59.74
2022-08-17T15:13:52.685Z,64.96
2022-08-17T15:16:21.623Z,67.63
2022-08-17T15:18:50.188Z,69.47
2022-08-17T15:21:18.290Z,71.14
2022-08-17T15:23:47.796Z,72.09
2022-08-17T15:26:16.490Z,77.05
2022-08-17T15:28:44.558Z,79.76
2022-08-17T15:31:31.609Z,77.80
2022-08-17T15:34:00.784Z,73.40
2022-08-17T15:36:28.896Z,85.61
2022-08-17T15:38:58.861Z,81.39
2022-08-17T15:41:28.200Z,83.73
2022-08-17T15:43:56.967Z,87.77
2022-08-17T15:46:26.977Z,88.89
2022-08-17T15:48:59.017Z,93.93
2022-08-17T15:51:29.352Z,96.83
2022-08-17T15:54:04.557Z,98.64
2022-08-17T15:56:47.283Z,98.66
2022-08-17T15:59:15.242Z,98.80
2022-08-17T16:03:11.124Z,95.68
2022-08-17T16:04:31.875Z,93.72
2022-08-17T16:07:00.370Z,90.88
2022-08-17T16:09:29.771Z,88.22
2022-08-17T16:11:57.773Z,87.11
2022-08-17T16:14:33.540Z,85.30
2022-08-17T16:17:03.394Z,84.91
2022-08-17T16:19:32.550Z,83.37
2022-08-17T16:22:00.785Z,82.74
2022-08-17T16:24:31.248Z,83.77
2022-08-17T16:26:59.332Z,83.46
2022-08-17T16:29:27.250Z,83.88
2022-08-17T16:31:55.900Z,80.31
2022-08-17T16:34:24.017Z,82.92
2022-08-17T16:36:56.165Z,83.41
2022-08-17T16:39:26.616Z,83.58
2022-08-17T16:41:56.457Z,82.75
2022-08-17T16:44:25.811Z,82.62
2022-08-17T16:46:53.924Z,82.05
2022-08-17T16:49:37.364Z,83.16
2022-08-17T16:52:09.848Z,83.71
2022-08-17T16:54:39.298Z,83.24
2022-08-17T16:57:08.696Z,82.87
2022-08-17T16:59:41.006Z,82.27
2022-08-17T17:02:14.290Z,81.49
2022-08-17T17:04:48.120Z,81.32
2022-08-17T17:07:38.848Z,80.87
2022-08-17T17:10:10.392Z,81.19
2022-08-17T17:13:01.467Z,81.35
2022-08-17T17:15:39.471Z,81.21
2022-08-17T17:18:11.887Z,81.25
2022-08-17T17:20:45.876Z,83.37
2022-08-17T17:23:30.850Z,84.47
2022-08-17T17:26:09.292Z,85.16
2022-08-17T17:28:47.468Z,85.90
2022-08-17T17:31:18.098Z,85.91
2022-08-17T17:33:49.156Z,86.16
2022-08-17T17:36:25.275Z,88.93
2022-08-17T17:38:55.531Z,89.15
2022-08-17T17:41:29.250Z,91.15
2022-08-17T17:44:05.355Z,91.65
2022-08-17T17:46:39.501Z,89.84
2022-08-17T17:49:10.234Z,88.92
2022-08-17T17:52:06.485Z,88.60
2022-08-17T17:54:48.238Z,88.02
2022-08-17T17:57:27.364Z,90.16
2022-08-17T18:00:06.846Z,90.52
2022-08-17T18:02:51.284Z,90.04
2022-08-17T18:05:35.907Z,90.05
2022-08-17T18:08:19.318Z,87.94
2022-08-17T18:10:57.075Z,87.96
2022-08-17T18:13:41.763Z,88.49
2022-08-17T18:16:14.172Z,88.24
2022-08-17T18:18:44.808Z,87.89
2022-08-17T18:21:19.438Z,89.31
2022-08-17T18:23:50.947Z,89.17
2022-08-17T18:26:37.547Z,89.10
2022-08-17T18:29:16.460Z,88.28
2022-08-17T18:31:45.776Z,87.29
2022-08-17T18:34:46.040Z,86.98
2022-08-17T18:37:12.562Z,87.35
2022-08-17T18:39:44.303Z,87.32
2022-08-17T18:42:31.723Z,88.01
2022-08-17T18:44:59.762Z,87.44
2022-08-17T18:47:30.378Z,87.77
2022-08-17T18:50:02.394Z,86.98
2022-08-17T18:52:33.048Z,86.20
2022-08-17T18:55:12.790Z,86.85
2022-08-17T18:57:43.003Z,87.08
2022-08-17T19:00:18.188Z,87.09
2022-08-17T19:02:56.513Z,86.63
2022-08-17T19:05:40.519Z,85.96
2022-08-17T19:08:23.996Z,85.36
2022-08-17T19:10:55.321Z,86.14
2022-08-17T19:13:29.560Z,85.67
2022-08-17T19:16:11.682Z,86.26
2022-08-17T19:18:47.773Z,85.77
2022-08-17T19:21:19.757Z,85.24
2022-08-17T19:23:54.559Z,84.71
2022-08-17T19:26:54.502Z,85.52
2022-08-17T19:29:19.491Z,84.49
2022-08-17T19:31:50.873Z,83.91
2022-08-17T19:34:33.128Z,83.47
2022-08-17T19:37:06.930Z,83.37
2022-08-17T19:39:40.837Z,84.10
2022-08-17T19:42:14.055Z,84.55
2022-08-17T19:44:59.339Z,84.24
2022-08-17T19:47:56.579Z,83.81
2022-08-17T19:50:38.407Z,83.21
2022-08-17T19:53:17.637Z,83.38
2022-08-17T19:55:57.434Z,83.54
2022-08-17T19:58:38.266Z,83.83
2022-08-17T20:01:11.645Z,87.11
2022-08-17T20:03:52.032Z,88.19
2022-08-17T20:06:23.104Z,87.96
2022-08-17T20:08:59.077Z,87.73
2022-08-17T20:11:32.537Z,88.53
2022-08-17T20:14:05.892Z,87.53
2022-08-17T20:16:34.987Z,86.88
2022-08-17T20:19:07.076Z,87.00
2022-08-17T20:21:42.920Z,87.29
2022-08-17T20:24:21.328Z,88.65
2022-08-17T20:26:58.517Z,88.87
2022-08-17T20:29:37.807Z,88.35
2022-08-17T20:32:19.869Z,89.44
2022-08-17T20:34:49.417Z,88.92
2022-08-17T20:37:31.925Z,87.63
2022-08-17T20:40:23.122Z,89.69
2022-08-17T20:42:51.063Z,89.68
2022-08-17T20:45:58.235Z,90.14
2022-08-17T20:48:38.469Z,91.30
2022-08-17T20:51:19.165Z,92.13
2022-08-17T20:54:28.176Z,92.71
2022-08-17T20:56:59.178Z,91.34
2022-08-17T21:00:14.074Z,92.61
2022-08-17T21:02:44.488Z,92.56
2022-08-17T21:05:32.424Z,92.63
2022-08-17T21:08:14.346Z,91.74
2022-08-17T21:10:46.844Z,91.78
2022-08-17T21:13:36.409Z,91.26
2022-08-17T21:16:11.430Z,90.35
2022-08-17T21:18:45.603Z,89.57
2022-08-17T21:21:25.076Z,89.52
2022-08-17T21:24:08.539Z,87.04
2022-08-17T21:26:59.794Z,87.31
2022-08-17T21:29:33.752Z,86.39
2022-08-17T21:32:19.283Z,84.66
2022-08-17T21:35:31.055Z,86.04
2022-08-17T21:38:05.156Z,85.45
2022-08-17T21:40:34.779Z,84.95
2022-08-17T21:43:18.083Z,84.32
2022-08-17T21:45:56.718Z,85.74
2022-08-17T21:48:27.222Z,86.82
2022-08-17T21:51:03.755Z,86.97
2022-08-17T21:53:40.990Z,86.83
2022-08-17T21:56:11.964Z,87.58
2022-08-17T21:58:46.587Z,88.55
2022-08-17T22:01:25.702Z,89.51
2022-08-17T22:04:01.144Z,89.71
2022-08-17T22:06:34.309Z,89.58
2022-08-17T22:09:13.840Z,89.76
2022-08-17T22:12:05.960Z,90.83
2022-08-17T22:14:53.190Z,90.55
2022-08-17T22:17:24.849Z,90.74
2022-08-17T22:19:55.805Z,91.24
2022-08-17T22:22:30.236Z,91.35
2022-08-17T22:24:59.326Z,92.22
2022-08-17T22:27:56.292Z,93.75
2022-08-17T22:30:35.745Z,93.85
2022-08-17T22:33:35.596Z,94.16
2022-08-17T22:36:30.997Z,94.53
2022-08-17T22:39:00.914Z,93.68
2022-08-17T22:41:40.487Z,93.99
2022-08-17T22:44:15.911Z,92.79
2022-08-17T22:46:58.987Z,92.84
2022-08-17T22:49:32.763Z,92.83
2022-08-17T22:52:04.089Z,93.24
2022-08-17T22:54:49.946Z,92.97
2022-08-17T22:57:43.568Z,93.68
2022-08-17T23:00:30.311Z,94.63
2022-08-17T23:03:18.043Z,93.68
2022-08-17T23:05:49.797Z,93.60
2022-08-17T23:08:21.234Z,94.02
2022-08-17T23:10:49.980Z,93.54
2022-08-17T23:13:18.012Z,93.11
2022-08-17T23:15:52.636Z,93.31
2022-08-17T23:18:20.617Z,93.28
2022-08-17T23:20:49.956Z,93.24
2022-08-17T23:23:23.448Z,93.75
2022-08-17T23:25:51.772Z,94.07
2022-08-17T23:28:19.709Z,93.95
2022-08-17T23:30:48.500Z,93.51
2022-08-17T23:33:20.208Z,93.20
2022-08-17T23:35:49.565Z,93.33
2022-08-17T23:38:17.515Z,93.42
2022-08-17T23:40:45.585Z,94.21
2022-08-17T23:43:23.732Z,94.24
2022-08-17T23:45:54.922Z,94.97
2022-08-17T23:48:36.132Z,96.73
2022-08-17T23:51:10.520Z,97.46
2022-08-17T23:53:42.058Z,97.56
2022-08-17T23:56:11.474Z,98.38
2022-08-17T23:58:42.263Z,98.05
